Time;durP1;ratioP1;P1;durP2;ratioP2;P2;SDS_P1;SDS_P2;PMS_P1;PMS_P2;Temp;Humidity;BMP_temperature;BMP_pressure;BME280_temperature;BME280_humidity;BME280_pressure;Samples;Min_cycle;Max_cycle;Signal;HPM_P1;HPM_P2
2021/10/18 00:02:18;;;;;;;21.27;13.38;;;10.10;99.90;;;;;;5053427;28;20029;-85
2021/10/18 00:04:43;;;;;;;24.05;15.75;;;10.10;99.90;;;;;;5054644;28;20086;-85
2021/10/18 00:07:09;;;;;;;20.08;12.50;;;10.00;99.90;;;;;;5053357;28;20017;-85
2021/10/18 00:09:35;;;;;;;16.98;11.18;;;9.90;99.90;;;;;;5053300;28;20028;-84
2021/10/18 00:12:01;;;;;;;19.38;12.38;;;10.10;99.90;;;;;;5053342;28;20027;-84
2021/10/18 00:14:26;;;;;;;16.02;10.80;;;10.10;99.90;;;;;;5053192;28;20076;-84
2021/10/18 00:16:52;;;;;;;20.15;13.63;;;10.10;99.90;;;;;;5053124;28;20123;-85
2021/10/18 00:19:18;;;;;;;14.77;10.30;;;10.10;99.90;;;;;;5053048;28;20397;-84
2021/10/18 00:21:44;;;;;;;21.58;13.23;;;10.10;99.90;;;;;;5052143;28;20039;-84
2021/10/18 00:24:09;;;;;;;17.45;11.15;;;10.10;99.90;;;;;;5052965;28;20035;-84
2021/10/18 00:26:35;;;;;;;20.70;12.35;;;10.00;99.90;;;;;;5052967;28;20028;-85
2021/10/18 00:29:01;;;;;;;18.70;12.68;;;10.00;99.90;;;;;;5052910;28;20025;-84
2021/10/18 00:31:27;;;;;;;16.70;11.38;;;10.00;99.90;;;;;;5053191;28;20049;-84
2021/10/18 00:33:53;;;;;;;18.05;10.93;;;10.00;99.90;;;;;;5052836;28;20028;-85
2021/10/18 00:36:19;;;;;;;20.25;12.52;;;10.00;99.90;;;;;;5052838;28;20025;-85
2021/10/18 00:38:45;;;;;;;19.67;12.45;;;10.00;99.90;;;;;;5054087;28;20491;-85
2021/10/18 00:41:10;;;;;;;13.88;10.23;;;10.00;99.90;;;;;;5052786;28;20032;-85
2021/10/18 00:43:38;;;;;;;15.27;9.95;;;10.00;99.90;;;;;;5052629;28;20028;-85
2021/10/18 00:46:04;;;;;;;18.50;12.05;;;10.00;99.90;;;;;;5052719;28;20033;-85
2021/10/18 00:48:30;;;;;;;16.05;10.63;;;10.00;99.90;;;;;;5053164;28;20029;-84
2021/10/18 00:50:57;;;;;;;18.42;12.82;;;9.80;99.90;;;;;;5053959;28;20029;-85
2021/10/18 00:53:25;;;;;;;16.98;11.05;;;9.90;99.90;;;;;;5052655;28;20029;-85
2021/10/18 00:55:51;;;;;;;18.33;11.52;;;9.80;99.90;;;;;;5052416;28;20171;-84
2021/10/18 00:58:17;;;;;;;17.65;11.82;;;9.90;99.90;;;;;;5052381;28;20055;-84
2021/10/18 01:00:45;;;;;;;19.55;12.98;;;10.00;99.90;;;;;;5052499;28;20431;-85
2021/10/18 01:03:10;;;;;;;17.27;11.75;;;10.00;99.90;;;;;;5052466;28;20472;-85
2021/10/18 01:05:40;;;;;;;14.63;10.30;;;9.80;99.90;;;;;;5053566;28;20025;-84
2021/10/18 01:08:08;;;;;;;17.90;10.40;;;9.80;99.90;;;;;;5052274;28;20039;-85
2021/10/18 01:10:33;;;;;;;20.00;13.38;;;9.70;99.90;;;;;;5052279;28;20021;-84
2021/10/18 01:12:59;;;;;;;13.90;9.10;;;9.60;99.90;;;;;;5052108;28;20032;-84
2021/10/18 01:15:25;;;;;;;15.68;10.32;;;9.70;99.90;;;;;;5052092;28;20029;-84
2021/10/18 01:17:50;;;;;;;18.20;13.10;;;9.70;99.90;;;;;;5053375;28;20021;-84
2021/10/18 01:20:30;;;;;;;20.17;12.05;;;9.60;99.90;;;;;;5052150;28;20021;-85
2021/10/18 01:22:56;;;;;;;15.82;10.57;;;9.70;99.90;;;;;;5052178;28;20051;-85
2021/10/18 01:25:22;;;;;;;17.17;11.45;;;9.80;99.90;;;;;;5052095;28;20492;-85
2021/10/18 01:27:49;;;;;;;16.77;11.95;;;9.90;99.90;;;;;;5052066;28;20016;-85
2021/10/18 01:30:15;;;;;;;14.55;8.93;;;9.90;99.90;;;;;;5035408;28;20025;-85
2021/10/18 01:32:42;;;;;;;16.60;11.93;;;9.80;99.90;;;;;;5052131;28;20021;-85
2021/10/18 01:35:09;;;;;;;19.05;11.25;;;9.80;99.90;;;;;;5051881;28;20024;-84
2021/10/18 01:37:36;;;;;;;14.38;9.40;;;9.80;99.90;;;;;;5051761;28;20032;-84
2021/10/18 01:40:04;;;;;;;16.60;11.45;;;9.70;99.90;;;;;;5051817;28;20434;-84
2021/10/18 01:42:30;;;;;;;13.35;9.25;;;9.70;99.90;;;;;;5051800;28;20040;-84
2021/10/18 01:44:55;;;;;;;14.98;10.18;;;9.80;99.90;;;;;;5051976;28;20096;-85
2021/10/18 01:47:21;;;;;;;17.42;11.95;;;9.70;99.90;;;;;;5051852;28;20111;-85
2021/10/18 01:49:48;;;;;;;16.20;9.55;;;9.60;99.90;;;;;;5051755;28;20021;-84
2021/10/18 01:52:14;;;;;;;14.90;9.82;;;9.80;99.90;;;;;;5051639;28;20025;-85
2021/10/18 01:54:40;;;;;;;16.17;11.15;;;9.80;99.90;;;;;;5051626;28;20075;-85
2021/10/18 01:57:05;;;;;;;15.75;10.25;;;9.70;99.90;;;;;;5053944;28;20036;-85
2021/10/18 01:59:31;;;;;;;17.02;11.77;;;9.80;99.90;;;;;;5073184;28;20032;-85
2021/10/18 02:01:57;;;;;;;22.58;13.82;;;9.80;99.90;;;;;;5054811;28;20035;-85
2021/10/18 02:04:23;;;;;;;17.08;11.10;;;9.80;99.90;;;;;;5073071;28;20032;-84
2021/10/18 02:06:48;;;;;;;17.98;11.63;;;9.80;99.90;;;;;;5054879;28;20028;-84
2021/10/18 02:09:14;;;;;;;19.63;13.25;;;9.80;99.90;;;;;;5055143;28;20379;-85
2021/10/18 02:11:40;;;;;;;19.50;13.05;;;9.70;99.90;;;;;;5055076;28;20020;-84
2021/10/18 02:14:05;;;;;;;18.60;11.48;;;9.60;99.90;;;;;;5054717;28;20028;-85
2021/10/18 02:16:31;;;;;;;16.23;10.55;;;9.80;99.90;;;;;;5054952;28;20119;-84
2021/10/18 02:18:57;;;;;;;18.13;13.10;;;9.90;99.90;;;;;;5054679;28;20107;-84
2021/10/18 02:21:22;;;;;;;19.95;13.02;;;9.90;99.90;;;;;;5054703;28;20025;-84
2021/10/18 02:23:48;;;;;;;18.95;13.63;;;9.80;99.90;;;;;;5054548;28;20036;-85
2021/10/18 02:26:14;;;;;;;25.58;15.10;;;9.70;99.90;;;;;;5054618;28;20048;-85
2021/10/18 02:28:39;;;;;;;15.40;10.65;;;9.50;99.90;;;;;;5054785;28;20434;-85
2021/10/18 02:31:05;;;;;;;17.90;12.02;;;9.70;99.90;;;;;;5054774;28;20017;-85
2021/10/18 02:33:31;;;;;;;18.90;12.52;;;9.70;99.90;;;;;;5054709;28;20499;-85
2021/10/18 02:35:56;;;;;;;17.55;10.05;;;9.60;99.90;;;;;;5054752;28;20075;-85
2021/10/18 02:38:22;;;;;;;21.15;13.48;;;9.70;99.90;;;;;;5054635;28;20448;-85
2021/10/18 02:40:48;;;;;;;18.13;10.88;;;9.80;99.90;;;;;;5054640;28;20029;-85
2021/10/18 02:43:13;;;;;;;14.95;10.02;;;9.80;99.90;;;;;;5054772;28;20107;-85
2021/10/18 02:45:39;;;;;;;14.77;10.35;;;9.80;99.90;;;;;;5058228;28;20480;-84
2021/10/18 02:48:05;;;;;;;17.20;11.90;;;9.80;99.90;;;;;;5058317;28;20024;-84
2021/10/18 02:50:30;;;;;;;16.13;10.35;;;9.80;99.90;;;;;;5076201;28;20067;-84
2021/10/18 02:52:56;;;;;;;18.27;11.38;;;9.80;99.90;;;;;;5058147;28;20027;-85
2021/10/18 02:55:22;;;;;;;14.63;10.10;;;9.90;99.90;;;;;;5058152;28;20074;-84
2021/10/18 02:57:47;;;;;;;15.48;10.75;;;9.70;99.90;;;;;;5054564;28;20110;-84
2021/10/18 03:00:14;;;;;;;14.45;10.13;;;9.80;99.90;;;;;;5054815;28;20457;-84
2021/10/18 03:02:39;;;;;;;18.98;12.05;;;9.90;99.90;;;;;;5054768;28;20028;-84
2021/10/18 03:05:06;;;;;;;16.40;10.50;;;9.80;99.90;;;;;;5054598;28;20036;-85
2021/10/18 03:07:31;;;;;;;16.65;11.63;;;9.80;99.90;;;;;;5054597;28;20029;-85
2021/10/18 03:09:57;;;;;;;17.90;11.43;;;9.60;99.90;;;;;;5054637;28;20141;-85
2021/10/18 03:12:23;;;;;;;15.73;10.65;;;9.60;99.90;;;;;;5055798;28;20029;-85
2021/10/18 03:14:48;;;;;;;16.85;11.98;;;9.60;99.90;;;;;;5054510;28;20064;-85
2021/10/18 03:17:14;;;;;;;16.63;11.30;;;9.50;99.90;;;;;;5054484;28;20507;-85
2021/10/18 03:19:40;;;;;;;14.60;10.02;;;9.50;99.90;;;;;;5054428;28;20025;-85
2021/10/18 03:22:05;;;;;;;13.70;10.00;;;9.70;99.90;;;;;;5054407;28;20029;-84
2021/10/18 03:24:31;;;;;;;11.13;9.13;;;9.60;99.90;;;;;;5054245;28;20025;-84
2021/10/18 03:26:57;;;;;;;12.68;9.32;;;9.50;99.90;;;;;;5055553;28;20021;-84
2021/10/18 03:29:22;;;;;;;17.08;11.27;;;9.60;99.90;;;;;;5054236;28;20021;-84
2021/10/18 03:31:48;;;;;;;13.95;9.27;;;9.70;99.90;;;;;;5054245;28;20025;-85
2021/10/18 03:34:14;;;;;;;17.40;11.18;;;9.80;99.90;;;;;;5055387;28;20100;-84
2021/10/18 03:36:39;;;;;;;15.63;9.90;;;9.60;99.90;;;;;;5054146;28;20029;-84
2021/10/18 03:39:05;;;;;;;12.88;9.18;;;9.60;99.90;;;;;;5054078;28;20374;-85
2021/10/18 03:41:31;;;;;;;13.38;8.80;;;9.40;99.90;;;;;;5054021;28;20112;-85
2021/10/18 03:43:57;;;;;;;14.65;9.88;;;9.50;99.90;;;;;;5053791;28;20025;-85
2021/10/18 03:46:23;;;;;;;17.45;11.70;;;9.60;99.90;;;;;;5054125;28;20040;-85
2021/10/18 03:48:48;;;;;;;15.27;10.65;;;9.40;99.90;;;;;;5053788;28;20392;-85
2021/10/18 03:51:14;;;;;;;11.80;8.95;;;9.10;99.90;;;;;;5053658;28;20052;-84
2021/10/18 03:53:41;;;;;;;11.05;8.25;;;9.30;99.90;;;;;;5055216;28;20017;-85
2021/10/18 03:56:07;;;;;;;14.15;10.02;;;9.50;99.90;;;;;;5053663;28;20021;-85
2021/10/18 03:58:32;;;;;;;14.60;9.38;;;9.60;99.90;;;;;;5053617;28;20090;-85
2021/10/18 04:00:58;;;;;;;16.10;9.68;;;9.70;99.90;;;;;;5053546;28;20052;-85
2021/10/18 04:03:24;;;;;;;11.18;8.82;;;9.60;99.90;;;;;;5053609;28;20479;-85
2021/10/18 04:05:49;;;;;;;12.63;8.93;;;9.50;99.90;;;;;;5054867;28;20114;-85
2021/10/18 04:08:15;;;;;;;11.60;8.50;;;9.50;99.90;;;;;;5053415;28;20021;-85
2021/10/18 04:10:42;;;;;;;11.73;7.85;;;9.50;99.90;;;;;;5053517;28;20094;-85
2021/10/18 04:13:08;;;;;;;12.85;8.82;;;9.40;99.90;;;;;;5053574;28;20029;-85
2021/10/18 04:15:34;;;;;;;12.57;8.68;;;9.50;99.90;;;;;;5053372;28;20025;-85
2021/10/18 04:18:00;;;;;;;14.05;10.30;;;9.50;99.90;;;;;;5053348;28;20021;-85
2021/10/18 04:20:26;;;;;;;14.68;10.02;;;9.40;99.90;;;;;;5054653;28;20049;-85
2021/10/18 04:22:51;;;;;;;15.23;9.88;;;9.20;99.90;;;;;;5054350;28;20025;-85
2021/10/18 04:25:17;;;;;;;15.13;10.30;;;9.10;99.90;;;;;;5053065;28;20512;-85
2021/10/18 04:27:43;;;;;;;14.27;9.68;;;8.90;99.90;;;;;;5053193;28;20377;-85
2021/10/18 04:30:09;;;;;;;16.10;10.77;;;8.90;99.90;;;;;;5053135;28;20029;-85
2021/10/18 04:32:35;;;;;;;15.50;11.65;;;8.80;99.90;;;;;;5053248;28;20028;-85
2021/10/18 04:35:01;;;;;;;16.95;10.75;;;8.70;99.90;;;;;;5053036;28;20021;-84
2021/10/18 04:37:27;;;;;;;15.25;8.82;;;8.80;99.90;;;;;;5053296;28;20025;-85
2021/10/18 04:39:53;;;;;;;13.25;9.23;;;8.90;99.90;;;;;;5052935;28;20567;-85
2021/10/18 04:42:19;;;;;;;17.00;9.48;;;9.10;99.90;;;;;;5053080;28;20048;-85
2021/10/18 04:44:44;;;;;;;11.00;8.45;;;9.10;99.90;;;;;;5052845;28;20024;-85
2021/10/18 04:47:10;;;;;;;8.95;6.30;;;9.20;99.90;;;;;;5052780;28;20503;-85
2021/10/18 04:49:36;;;;;;;18.33;8.52;;;9.40;99.90;;;;;;5052668;28;20443;-85
2021/10/18 04:52:01;;;;;;;11.27;7.22;;;9.60;99.90;;;;;;5053593;28;20028;-85
2021/10/18 04:54:27;;;;;;;15.73;9.77;;;9.60;99.90;;;;;;5052707;28;20025;-85
2021/10/18 04:56:53;;;;;;;11.90;7.88;;;9.50;99.90;;;;;;5054084;28;20029;-84
2021/10/18 04:59:18;;;;;;;14.10;9.45;;;9.60;99.90;;;;;;5073466;28;20037;-85
2021/10/18 05:01:44;;;;;;;14.82;9.57;;;9.50;99.90;;;;;;5073813;28;20051;-85
2021/10/18 05:04:10;;;;;;;12.80;8.18;;;9.30;99.90;;;;;;5073913;28;20086;-85
2021/10/18 05:06:35;;;;;;;12.40;8.63;;;9.20;99.90;;;;;;5055342;28;20024;-84
2021/10/18 05:09:01;;;;;;;10.98;7.43;;;9.30;99.90;;;;;;5055885;28;20025;-85
2021/10/18 05:11:27;;;;;;;10.70;7.90;;;9.40;99.90;;;;;;5055838;28;20089;-85
2021/10/18 05:13:52;;;;;;;16.83;11.85;;;9.60;99.90;;;;;;5055738;28;20025;-84
2021/10/18 05:16:18;;;;;;;14.85;10.10;;;9.50;99.90;;;;;;5055586;28;20025;-85
2021/10/18 05:18:44;;;;;;;13.45;9.00;;;9.40;99.90;;;;;;5055615;28;20484;-85
2021/10/18 05:21:10;;;;;;;23.85;13.20;;;9.50;99.90;;;;;;5055587;28;20029;-84
2021/10/18 05:23:35;;;;;;;17.10;12.45;;;9.50;99.90;;;;;;5055523;28;20085;-85
2021/10/18 05:26:02;;;;;;;16.88;11.18;;;9.20;99.90;;;;;;5055349;28;20368;-85
2021/10/18 05:28:28;;;;;;;18.33;11.75;;;9.30;99.90;;;;;;5055541;28;20052;-84
2021/10/18 05:30:53;;;;;;;16.08;10.60;;;9.20;99.90;;;;;;5073439;28;20495;-84
2021/10/18 05:33:19;;;;;;;17.52;10.85;;;9.30;99.90;;;;;;5055457;28;20016;-85
2021/10/18 05:35:46;;;;;;;17.88;12.00;;;9.20;99.90;;;;;;5073705;28;20028;-85
2021/10/18 05:38:20;;;;;;;16.65;11.40;;;9.40;99.90;;;;;;5073289;28;20468;-84
2021/10/18 05:40:47;;;;;;;13.95;9.32;;;9.30;99.90;;;;;;5055391;28;20059;-84
2021/10/18 05:43:14;;;;;;;17.85;12.05;;;9.20;99.90;;;;;;5055189;28;20173;-85
2021/10/18 05:45:40;;;;;;;16.40;10.77;;;9.20;99.90;;;;;;5055119;28;20119;-85
2021/10/18 05:48:05;;;;;;;15.40;10.13;;;9.30;99.90;;;;;;5055159;28;20107;-84
2021/10/18 05:50:41;;;;;;;15.38;10.32;;;9.40;99.90;;;;;;5055121;28;20021;-84
2021/10/18 05:53:08;;;;;;;14.05;9.60;;;9.50;99.90;;;;;;5055153;28;20051;-84
2021/10/18 05:55:34;;;;;;;20.88;12.98;;;9.60;99.90;;;;;;5055150;28;20109;-83
2021/10/18 05:58:06;;;;;;;17.85;11.20;;;9.40;99.90;;;;;;5051512;28;20045;-84
2021/10/18 06:00:43;;;;;;;15.50;9.85;;;9.40;99.90;;;;;;5051788;28;20506;-83
2021/10/18 06:03:10;;;;;;;19.27;12.13;;;9.40;99.90;;;;;;5051813;28;20057;-84
2021/10/18 06:05:45;;;;;;;15.38;9.73;;;9.40;99.90;;;;;;5051674;28;20033;-84
2021/10/18 06:08:13;;;;;;;22.40;13.50;;;9.30;99.90;;;;;;5052337;28;20137;-84
2021/10/18 06:10:39;;;;;;;16.75;11.27;;;9.30;99.90;;;;;;5053165;28;20056;-84
2021/10/18 06:13:06;;;;;;;22.92;12.60;;;9.00;99.90;;;;;;5052638;28;20021;-84
2021/10/18 06:15:32;;;;;;;16.30;10.10;;;9.00;99.90;;;;;;5051820;28;20029;-85
2021/10/18 06:18:15;;;;;;;21.13;12.88;;;9.10;99.90;;;;;;5051607;28;20500;-84
2021/10/18 06:20:50;;;;;;;17.58;10.95;;;9.10;99.90;;;;;;5055915;28;20036;-84
2021/10/18 06:23:15;;;;;;;;;;;9.00;99.90;;;;;;5056071;28;20430;-84
2021/10/18 06:25:42;;;;;;;26.92;16.17;;;9.20;99.90;;;;;;5055412;28;20054;-84
2021/10/18 06:28:08;;;;;;;28.42;16.30;;;9.10;99.90;;;;;;5055437;28;20040;-84
2021/10/18 06:30:38;;;;;;;31.48;18.00;;;8.90;99.90;;;;;;5055638;28;20025;-85
2021/10/18 06:33:04;;;;;;;20.92;13.30;;;8.90;99.90;;;;;;5055885;28;20037;-85
2021/10/18 06:35:31;;;;;;;25.35;16.15;;;8.90;99.90;;;;;;5055566;28;20055;-85
2021/10/18 06:37:57;;;;;;;25.88;15.25;;;9.10;99.90;;;;;;5055528;28;20503;-86
2021/10/18 06:40:23;;;;;;;26.83;15.23;;;9.20;99.90;;;;;;5056075;28;20025;-86
2021/10/18 06:42:49;;;;;;;24.30;14.60;;;9.20;99.90;;;;;;5055250;28;20036;-86
2021/10/18 06:45:14;;;;;;;25.83;15.07;;;9.20;99.90;;;;;;5055109;28;20108;-85
2021/10/18 06:47:40;;;;;;;24.95;14.15;;;9.20;99.90;;;;;;5055676;28;20372;-86
2021/10/18 06:50:08;;;;;;;30.80;16.45;;;9.10;99.90;;;;;;5055493;28;20383;-86
2021/10/18 06:52:37;;;;;;;26.92;17.08;;;9.10;99.90;;;;;;5055485;28;20021;-85
2021/10/18 06:55:05;;;;;;;28.25;16.83;;;9.00;99.90;;;;;;5055850;28;20060;-86
2021/10/18 06:57:32;;;;;;;31.70;21.38;;;8.90;99.90;;;;;;5055296;28;20465;-86
2021/10/18 06:59:59;;;;;;;41.30;28.58;;;8.90;99.90;;;;;;5055687;28;20111;-85
2021/10/18 07:02:25;;;;;;;49.00;32.72;;;9.00;99.90;;;;;;5055911;28;20025;-86
2021/10/18 07:04:51;;;;;;;19.55;11.70;;;8.90;99.90;;;;;;5056387;28;20131;-86
2021/10/18 07:07:17;;;;;;;20.20;13.70;;;9.20;99.90;;;;;;5055295;28;20025;-85
2021/10/18 07:09:43;;;;;;;21.92;13.45;;;9.30;99.90;;;;;;5056375;28;20023;-86
2021/10/18 07:12:09;;;;;;;21.75;12.88;;;9.30;99.90;;;;;;5054833;28;20428;-85
2021/10/18 07:14:35;;;;;;;21.45;13.35;;;9.40;99.90;;;;;;5054806;28;20047;-85
2021/10/18 07:17:01;;;;;;;29.48;14.10;;;9.50;99.90;;;;;;5054620;28;20048;-85
2021/10/18 07:19:27;;;;;;;25.17;13.13;;;9.10;99.90;;;;;;5054643;28;20029;-85
2021/10/18 07:21:53;;;;;;;25.60;14.45;;;9.20;99.90;;;;;;5054517;28;20434;-84
2021/10/18 07:24:19;;;;;;;27.08;13.57;;;9.10;99.90;;;;;;5054342;28;20025;-85
2021/10/18 07:26:49;;;;;;;21.38;14.20;;;9.20;99.90;;;;;;5054416;28;20021;-84
2021/10/18 07:29:20;;;;;;;21.65;13.73;;;8.70;99.90;;;;;;5053887;28;20097;-84
2021/10/18 07:31:46;;;;;;;26.25;15.88;;;9.00;99.90;;;;;;5054412;28;20028;-85
2021/10/18 07:34:14;;;;;;;36.10;15.00;;;8.70;99.90;;;;;;5054272;28;20029;-84
2021/10/18 07:36:49;;;;;;;25.38;15.43;;;8.20;99.90;;;;;;5055710;28;20066;-85
2021/10/18 07:39:23;;;;;;;23.00;13.60;;;8.50;99.90;;;;;;5054161;28;20027;-85
2021/10/18 07:41:57;;;;;;;20.70;13.57;;;8.70;99.90;;;;;;5054208;28;20024;-85
2021/10/18 07:44:28;;;;;;;22.92;13.82;;;8.90;99.90;;;;;;5054054;28;20392;-85
2021/10/18 07:46:55;;;;;;;24.33;15.07;;;9.20;99.90;;;;;;5054142;28;20538;-84
2021/10/18 07:49:23;;;;;;;27.13;14.93;;;9.10;99.90;;;;;;5053993;28;20469;-85
2021/10/18 07:51:49;;;;;;;20.35;12.98;;;9.10;99.90;;;;;;5053888;28;20032;-85
2021/10/18 07:54:16;;;;;;;19.13;12.10;;;9.30;99.90;;;;;;5054217;28;20021;-85
2021/10/18 07:56:41;;;;;;;21.15;13.48;;;9.40;99.90;;;;;;5055421;28;20541;-85
2021/10/18 07:59:07;;;;;;;24.70;13.63;;;9.30;99.90;;;;;;5053759;28;20045;-85
2021/10/18 08:01:33;;;;;;;31.00;13.07;;;9.10;99.90;;;;;;5053752;28;20163;-84
2021/10/18 08:03:59;;;;;;;23.13;13.18;;;9.10;99.90;;;;;;5053748;28;20166;-85
2021/10/18 08:06:24;;;;;;;26.15;14.52;;;8.90;99.90;;;;;;5054235;28;20025;-85
2021/10/18 08:08:53;;;;;;;21.05;12.25;;;8.80;99.90;;;;;;5055140;28;20048;-85
2021/10/18 08:11:19;;;;;;;21.05;12.65;;;9.10;99.90;;;;;;5054846;28;20031;-85
2021/10/18 08:13:45;;;;;;;19.65;11.93;;;9.40;99.90;;;;;;5055048;28;20059;-85
2021/10/18 08:16:10;;;;;;;19.27;11.95;;;9.30;99.90;;;;;;5053462;28;20503;-85
2021/10/18 08:18:38;;;;;;;19.33;11.82;;;9.50;99.90;;;;;;5053451;28;20025;-85
2021/10/18 08:21:05;;;;;;;18.95;12.48;;;9.30;99.90;;;;;;5053413;28;20052;-85
2021/10/18 08:23:32;;;;;;;19.80;12.32;;;9.30;99.90;;;;;;5053294;28;20052;-84
2021/10/18 08:26:02;;;;;;;23.80;13.77;;;9.30;99.90;;;;;;5053093;28;20046;-85
2021/10/18 08:28:28;;;;;;;22.13;12.88;;;9.40;99.90;;;;;;5054471;28;20370;-84
2021/10/18 08:30:54;;;;;;;20.83;11.43;;;9.50;99.90;;;;;;5054467;28;20024;-85
2021/10/18 08:33:21;;;;;;;21.45;13.18;;;9.70;99.90;;;;;;5053136;28;20025;-83
2021/10/18 08:35:47;;;;;;;26.00;15.60;;;9.80;99.90;;;;;;5053195;28;20124;-83
2021/10/18 08:46:02;;;;;;;22.60;13.85;;;9.80;99.90;;;;;;5054406;28;20028;-82
2021/10/18 08:48:28;;;;;;;20.17;12.25;;;9.80;99.90;;;;;;5052861;28;20025;-82
2021/10/18 08:50:54;;;;;;;21.42;13.48;;;9.90;99.90;;;;;;5052766;28;20470;-82
2021/10/18 08:53:20;;;;;;;17.30;11.38;;;10.10;99.90;;;;;;5052717;28;20021;-81
2021/10/18 08:55:46;;;;;;;19.23;12.18;;;10.10;99.90;;;;;;5052555;28;20400;-83
2021/10/18 08:58:12;;;;;;;21.83;13.10;;;10.10;99.90;;;;;;5052447;28;20496;-82
2021/10/18 09:00:50;;;;;;;16.98;10.65;;;10.20;99.90;;;;;;5052587;28;20341;-82
2021/10/18 09:03:20;;;;;;;16.58;10.32;;;10.20;99.90;;;;;;5054426;28;20021;-82
2021/10/18 09:05:46;;;;;;;25.58;14.85;;;10.40;99.90;;;;;;5052418;28;20040;-83
2021/10/18 09:08:32;;;;;;;22.40;13.43;;;9.90;99.90;;;;;;5052993;28;20045;-83
2021/10/18 09:11:10;;;;;;;20.35;13.73;;;9.90;99.90;;;;;;5052400;28;20025;-82
2021/10/18 09:13:43;;;;;;;20.17;11.82;;;9.80;99.90;;;;;;5052350;28;20032;-82
2021/10/18 09:16:11;;;;;;;19.73;13.07;;;9.90;99.90;;;;;;5052357;28;20033;-82
2021/10/18 09:18:38;;;;;;;15.90;10.30;;;9.80;99.90;;;;;;5053453;28;20033;-82
2021/10/18 09:21:04;;;;;;;23.08;12.93;;;10.00;99.90;;;;;;5052190;28;20020;-82
2021/10/18 09:23:36;;;;;;;22.95;14.23;;;9.90;99.90;;;;;;5052194;28;20028;-82
2021/10/18 09:26:07;;;;;;;18.02;10.70;;;9.70;99.90;;;;;;5052079;28;20039;-82
2021/10/18 09:28:34;;;;;;;15.35;10.18;;;9.90;99.90;;;;;;5052065;28;20025;-82
2021/10/18 09:31:00;;;;;;;21.25;13.27;;;9.90;99.90;;;;;;5053606;28;20032;-82
2021/10/18 09:33:37;;;;;;;11.40;7.70;;;10.00;99.90;;;;;;5052018;28;20023;-82
2021/10/18 09:36:06;;;;;;;17.65;9.95;;;10.20;99.90;;;;;;5052017;28;20116;-82
2021/10/18 09:38:32;;;;;;;21.13;12.50;;;10.30;99.90;;;;;;5053514;28;20024;-82
2021/10/18 09:40:59;;;;;;;23.05;13.60;;;10.30;99.90;;;;;;5053584;28;20465;-82
2021/10/18 09:43:36;;;;;;;18.33;12.23;;;10.10;99.90;;;;;;5052196;28;20032;-82
2021/10/18 10:53:18;;;;;;;23.38;14.80;;;11.70;99.90;;;;;;5073134;28;20090;-82
2021/10/18 10:55:44;;;;;;;29.50;16.77;;;11.90;99.90;;;;;;5054519;28;20496;-82
2021/10/18 10:58:35;;;;;;;25.63;16.35;;;12.10;99.90;;;;;;5054801;28;20098;-82
2021/10/18 11:01:02;;;;;;;22.95;14.70;;;11.60;99.90;;;;;;5054434;28;20391;-82
2021/10/18 11:03:41;;;;;;;23.05;15.10;;;11.70;99.90;;;;;;5054454;28;20201;-82
2021/10/18 11:06:15;;;;;;;22.58;14.90;;;11.50;99.90;;;;;;5057375;28;20116;-82
2021/10/18 11:08:45;;;;;;;23.65;14.68;;;11.70;99.90;;;;;;5057984;28;20031;-82
2021/10/18 11:11:15;;;;;;;21.65;13.70;;;11.80;99.90;;;;;;5057864;28;20021;-82
2021/10/18 11:13:49;;;;;;;24.27;14.43;;;12.00;99.90;;;;;;5057929;28;20025;-82
2021/10/18 11:16:15;;;;;;;20.25;13.27;;;12.40;99.90;;;;;;5058659;28;20028;-83
2021/10/18 11:18:41;;;;;;;23.88;14.50;;;12.90;99.90;;;;;;5075806;28;20059;-83
2021/10/18 11:21:14;;;;;;;24.90;13.32;;;13.40;99.90;;;;;;5057778;28;20060;-83
2021/10/18 11:23:56;;;;;;;17.73;10.98;;;14.10;99.90;;;;;;5057732;28;20487;-84
2021/10/18 11:26:22;;;;;;;17.30;11.25;;;15.60;99.90;;;;;;5057547;28;20032;-82
2021/10/18 11:28:56;;;;;;;19.02;13.00;;;16.80;99.90;;;;;;5057582;28;20056;-83
2021/10/18 11:31:26;;;;;;;23.58;13.13;;;17.10;99.90;;;;;;5075603;28;20025;-83
2021/10/18 11:34:02;;;;;;;18.40;11.98;;;17.50;99.90;;;;;;5057539;28;20036;-83
2021/10/18 11:36:28;;;;;;;16.95;11.38;;;18.20;99.90;;;;;;5057484;28;20024;-84
2021/10/18 11:39:27;;;;;;;17.98;10.40;;;19.00;99.90;;;;;;5057426;28;20047;-83
2021/10/18 11:41:59;;;;;;;15.35;11.00;;;19.70;99.90;;;;;;5014756;28;20041;-84
2021/10/18 11:45:00;;;;;;;15.98;10.80;;;19.80;99.90;;;;;;5057281;28;20036;-84
2021/10/18 11:47:37;;;;;;;16.48;11.23;;;20.10;99.90;;;;;;4977605;28;20030;-84
2021/10/18 11:50:06;;;;;;;14.65;10.65;;;19.20;99.90;;;;;;5065058;28;20110;-86
2021/10/18 11:52:33;;;;;;;18.23;10.85;;;19.40;99.90;;;;;;5057514;28;20035;-86
2021/10/18 11:54:59;;;;;;;15.70;10.70;;;19.50;99.90;;;;;;5057446;28;20119;-87
2021/10/18 11:57:27;;;;;;;15.23;9.65;;;20.20;99.90;;;;;;5074901;28;20434;-87
2021/10/18 11:59:54;;;;;;;14.18;9.50;;;20.70;99.90;;;;;;5057353;28;20044;-87
2021/10/18 12:02:22;;;;;;;13.63;8.63;;;20.50;99.90;;;;;;5057119;28;20074;-87
2021/10/18 12:04:58;;;;;;;11.52;8.23;;;20.70;99.90;;;;;;5074851;28;20037;-86
2021/10/18 12:07:47;;;;;;;11.10;8.55;;;21.00;99.90;;;;;;5056966;28;20032;-86
2021/10/18 12:10:25;;;;;;;13.55;9.30;;;20.90;99.90;;;;;;5057090;28;20025;-86
2021/10/18 12:13:14;;;;;;;10.52;7.85;;;21.20;99.90;;;;;;5057001;28;20412;-86
2021/10/18 12:15:53;;;;;;;12.35;8.35;;;21.40;99.90;;;;;;5056869;28;20476;-86
2021/10/18 12:18:27;;;;;;;11.57;6.93;;;21.80;99.90;;;;;;5057078;28;20081;-86
2021/10/18 12:20:56;;;;;;;11.50;7.13;;;22.00;99.90;;;;;;5074836;28;20074;-86
2021/10/18 12:23:34;;;;;;;9.38;7.05;;;22.20;99.90;;;;;;5057315;28;20132;-86
2021/10/18 12:26:05;;;;;;;12.45;6.97;;;22.00;99.90;;;;;;5056785;28;20055;-86
2021/10/18 12:28:40;;;;;;;11.40;7.53;;;22.00;99.90;;;;;;5056978;28;20024;-86
2021/10/18 12:31:25;;;;;;;10.02;5.95;;;22.30;99.90;;;;;;5057098;28;20024;-87
2021/10/18 12:34:01;;;;;;;10.80;6.80;;;22.80;99.90;;;;;;5056597;28;20546;-86
2021/10/18 12:36:28;;;;;;;7.07;5.20;;;22.60;99.70;;;;;;5056455;28;20051;-86
2021/10/18 12:38:54;;;;;;;7.90;4.72;;;22.80;98.50;;;;;;5056400;28;20111;-86
2021/10/18 12:41:22;;;;;;;7.43;5.82;;;23.50;97.80;;;;;;5056408;28;20050;-87
2021/10/18 12:43:49;;;;;;;7.07;5.38;;;23.90;99.90;;;;;;5056316;28;20020;-87
2021/10/18 12:46:18;;;;;;;7.10;4.70;;;;;;;;;;5056226;28;20025;-87
2021/10/18 12:49:05;;;;;;;7.95;5.13;;;24.10;94.60;;;;;;5056289;28;20471;-86
2021/10/18 12:51:57;;;;;;;6.28;4.95;;;23.80;95.20;;;;;;5056145;28;20048;-87
2021/10/18 12:54:26;;;;;;;7.20;5.40;;;23.00;95.60;;;;;;5052374;28;20381;-86
2021/10/18 12:57:02;;;;;;;7.53;5.45;;;22.30;96.90;;;;;;5074173;28;20484;-86
2021/10/18 12:59:29;;;;;;;7.60;5.47;;;21.70;97.40;;;;;;5073916;28;20075;-86
2021/10/18 13:02:13;;;;;;;8.18;5.85;;;21.40;98.10;;;;;;5073870;28;20016;-86
2021/10/18 13:04:39;;;;;;;10.52;5.78;;;21.50;98.00;;;;;;5055923;28;20078;-86
2021/10/18 13:07:05;;;;;;;6.45;5.28;;;20.80;99.20;;;;;;5055887;28;20020;-86
2021/10/18 13:09:30;;;;;;;8.02;5.70;;;20.30;99.90;;;;;;5055815;28;20021;-85
2021/10/18 13:11:56;;;;;;;8.43;5.88;;;19.70;99.90;;;;;;5055757;28;20487;-86
2021/10/18 13:14:22;;;;;;;7.38;5.53;;;19.60;99.90;;;;;;5055707;28;20023;-86
2021/10/18 13:16:47;;;;;;;8.88;5.53;;;19.40;99.90;;;;;;5055727;28;20035;-85
2021/10/18 13:19:13;;;;;;;7.65;5.75;;;19.40;99.90;;;;;;5055670;28;20020;-86
2021/10/18 13:21:39;;;;;;;7.70;5.13;;;19.70;99.90;;;;;;5055724;28;20029;-86
2021/10/18 13:24:05;;;;;;;7.03;5.22;;;20.10;99.90;;;;;;5055596;28;20495;-86
2021/10/18 13:26:30;;;;;;;7.57;4.82;;;20.30;99.90;;;;;;5055334;28;20117;-86
2021/10/18 13:28:56;;;;;;;9.32;4.80;;;20.40;99.90;;;;;;5055135;28;20033;-86
2021/10/18 13:31:21;;;;;;;8.15;5.43;;;20.90;99.90;;;;;;5055504;28;20460;-86
2021/10/18 13:33:47;;;;;;;7.88;5.22;;;21.20;99.60;;;;;;5055954;28;20027;-86
2021/10/18 13:36:13;;;;;;;6.75;4.93;;;21.20;99.70;;;;;;5055765;28;20021;-86
2021/10/18 13:38:39;;;;;;;6.78;5.20;;;21.40;99.20;;;;;;5073438;28;20035;-86
2021/10/18 13:41:05;;;;;;;6.28;4.70;;;21.40;99.40;;;;;;5055371;28;20025;-86
2021/10/18 13:43:30;;;;;;;7.38;5.18;;;21.30;99.40;;;;;;5055362;28;20454;-86
2021/10/18 13:45:57;;;;;;;8.90;5.78;;;20.70;99.90;;;;;;5073417;28;20056;-87
2021/10/18 13:48:24;;;;;;;13.82;5.20;;;20.70;99.90;;;;;;5055236;28;20109;-86
2021/10/18 13:50:50;;;;;;;9.45;4.68;;;21.50;99.90;;;;;;5055496;28;20051;-86
2021/10/18 13:53:20;;;;;;;8.50;5.07;;;22.90;97.80;;;;;;5055165;28;20104;-87
2021/10/18 13:55:47;;;;;;;6.60;4.88;;;23.50;97.10;;;;;;5055087;28;20119;-87
2021/10/18 13:58:13;;;;;;;5.55;4.10;;;24.70;95.10;;;;;;5055157;28;20515;-87